Pagrindinis puslapis
METAR-TAF:

METAR-TAF

Oro uostai :

Valley, Velsas

platuma: 53-15N, ilguma: 004-32W, Aukštis: 1 m

Dabartinis oras

Ataskaita buvo paskelbta 30 minutes, ne 19:50 UTC
Vėjas 4 kt iš Vakarų/Pietvakarių
Temperatūra 4°C
Drėgmė 93%
Slėgis 1046 hPa
Matomumas 10 km arba daugiau
nėra debesų žemiau 1500 m ir nėra kamuolinių lietaus debesų

METAR: EGOV 201950Z 25004KT CAVOK 04/03 Q1046 NOSIG RMK BLU BLU

Laikas: 20:20 (20:20 UTC)

Prognozė

Ataskaita buvo paskelbta 3 valandos ir 42 minutes, ne 16:38 UTC
Prognozė galioja nuo 20 metu 18 UTC su 20 metu 21 UTC
Vėjas 8 kt iš Pietvakarių
Matomumas 10 km arba daugiau
Mažai debesys ne aukštis 1800 ft

TAF: EGOV 201638Z 2018/2021 23008KT 9999 FEW018

Orai ataskaitas ir orų prognozės (METAR, TAF).

turimą stotys yra geltonos ir raudonos taškus žemėlapyje.

Perkelti pele per norėdami pamatyti stoties vardą.

Tada spustelėkite, norėdami matyti oro stebėjimo ir prognozės.

Norėdami pakeisti žemėlapį: spustelėkite ant žalios mygtukų su juodo kryžiaus žemyn,; žalią mygtuką su brūkšneliu, jei norite nutolinti; arba žalių rodyklių gretimoms žemėlapius.


METAR-TAF: